createdAt,value
2019-02-25T00:01:06.988Z,67.63
2019-02-25T00:03:33.238Z,68.49
2019-02-25T00:05:59.473Z,68.08
2019-02-25T00:08:25.702Z,68.84
2019-02-25T00:10:51.946Z,69.28
2019-02-25T00:13:18.180Z,68.38
2019-02-25T00:15:44.423Z,66.52
2019-02-25T00:18:10.656Z,68.08
2019-02-25T00:20:36.895Z,66.40
2019-02-25T00:23:03.126Z,67.35
2019-02-25T00:25:29.360Z,68.42
2019-02-25T00:27:55.589Z,67.21
2019-02-25T00:31:03.143Z,66.38
2019-02-25T00:33:29.399Z,66.75
2019-02-25T00:35:55.686Z,67.72
2019-02-25T00:38:21.927Z,67.88
2019-02-25T00:40:48.173Z,67.70
2019-02-25T00:43:14.420Z,66.86
2019-02-25T00:45:40.663Z,66.36
2019-02-25T00:48:06.894Z,65.77
2019-02-25T00:50:33.139Z,66.36
2019-02-25T00:52:59.372Z,67.39
2019-02-25T00:55:25.605Z,66.45
2019-02-25T00:57:51.862Z,67.18
2019-02-25T01:03:18.815Z,67.80
2019-02-25T01:05:45.064Z,68.59
2019-02-25T01:08:11.301Z,66.54
2019-02-25T01:10:37.527Z,67.08
2019-02-25T01:13:03.771Z,66.01
2019-02-25T01:15:29.999Z,67.90
2019-02-25T01:17:56.245Z,66.67
2019-02-25T01:20:22.471Z,66.12
2019-02-25T01:22:48.712Z,65.76
2019-02-25T01:25:56.246Z,66.56
2019-02-25T01:28:22.492Z,66.50
2019-02-25T01:30:48.751Z,66.20
2019-02-25T01:33:14.996Z,67.39
2019-02-25T01:35:41.247Z,66.93
2019-02-25T01:38:07.499Z,68.65
2019-02-25T01:40:33.749Z,66.97
2019-02-25T01:42:59.986Z,66.79
2019-02-25T01:45:26.217Z,66.67
2019-02-25T01:47:52.475Z,65.72
2019-02-25T01:50:18.702Z,67.84
2019-02-25T01:52:44.941Z,67.20
2019-02-25T01:58:24.800Z,65.29
2019-02-25T02:00:51.033Z,66.40
2019-02-25T02:03:17.277Z,63.93
2019-02-25T02:05:43.505Z,67.07
2019-02-25T02:08:09.743Z,63.92
2019-02-25T02:10:36.001Z,65.72
2019-02-25T02:13:02.240Z,67.70
2019-02-25T02:15:28.474Z,64.45
2019-02-25T02:17:54.719Z,63.25
2019-02-25T02:20:20.946Z,62.80
2019-02-25T02:22:47.192Z,62.05
2019-02-25T02:25:13.459Z,60.88
2019-02-25T02:27:39.658Z,63.46
2019-02-25T02:30:25.656Z,63.98
2019-02-25T02:32:51.906Z,64.54
2019-02-25T02:35:18.152Z,65.84
2019-02-25T02:37:44.399Z,67.71
2019-02-25T02:43:24.624Z,66.25
2019-02-25T02:51:52.861Z,65.80
2019-02-25T02:54:19.111Z,65.73
2019-02-25T02:56:45.336Z,66.23
2019-02-25T02:59:11.580Z,66.38
2019-02-25T03:01:37.813Z,64.41
2019-02-25T03:04:04.056Z,65.25
2019-02-25T03:06:30.305Z,64.63
2019-02-25T03:08:56.513Z,63.92
2019-02-25T03:11:22.758Z,66.46
2019-02-25T03:13:48.983Z,67.02
2019-02-25T03:16:15.231Z,67.20
2019-02-25T03:18:41.468Z,68.28
2019-02-25T03:21:07.717Z,69.37
2019-02-25T03:23:33.952Z,67.91
2019-02-25T03:26:00.212Z,69.13
2019-02-25T03:28:26.447Z,67.75
2019-02-25T03:30:52.699Z,68.65
2019-02-25T03:33:18.952Z,67.23
2019-02-25T03:35:45.179Z,66.00
2019-02-25T03:38:11.412Z,66.07
2019-02-25T03:40:37.660Z,66.98
2019-02-25T03:43:03.890Z,67.74
2019-02-25T03:45:30.128Z,69.03
2019-02-25T03:47:56.356Z,67.67
2019-02-25T03:50:22.622Z,68.10
2019-02-25T03:52:48.845Z,68.13
2019-02-25T03:55:34.833Z,68.08
2019-02-25T03:58:01.089Z,68.91
2019-02-25T04:00:27.317Z,70.04
2019-02-25T04:02:53.547Z,69.00
2019-02-25T04:05:19.891Z,68.79
2019-02-25T04:07:46.171Z,66.91
2019-02-25T04:10:53.705Z,68.14
2019-02-25T04:13:20.038Z,69.27
2019-02-25T04:15:46.309Z,70.14
2019-02-25T04:18:12.552Z,71.04
2019-02-25T04:20:38.812Z,70.87
2019-02-25T04:23:05.056Z,68.82
2019-02-25T04:25:31.296Z,68.56
2019-02-25T04:27:57.537Z,69.29
2019-02-25T04:30:23.763Z,68.57
2019-02-25T04:32:50.012Z,69.57
2019-02-25T04:35:16.233Z,70.25
2019-02-25T04:37:42.482Z,70.34
2019-02-25T04:43:22.492Z,68.99
2019-02-25T04:45:48.721Z,70.60
2019-02-25T04:48:14.975Z,70.52
2019-02-25T04:50:41.206Z,71.71
2019-02-25T04:53:07.457Z,71.33
2019-02-25T04:55:33.691Z,70.96
2019-02-25T04:57:59.928Z,71.04
2019-02-25T05:00:26.155Z,71.27
2019-02-25T05:02:52.389Z,70.72
2019-02-25T05:05:18.628Z,71.56
2019-02-25T05:07:44.870Z,71.19
2019-02-25T05:10:30.858Z,71.30
2019-02-25T05:13:16.859Z,71.53
2019-02-25T05:15:43.093Z,71.64
2019-02-25T05:18:09.370Z,71.79
2019-02-25T05:20:35.592Z,69.89
2019-02-25T05:23:01.838Z,71.28
2019-02-25T05:25:28.103Z,69.52
2019-02-25T05:27:54.325Z,68.16
2019-02-25T05:30:20.559Z,69.67
2019-02-25T05:32:46.806Z,69.45
2019-02-25T05:35:13.033Z,69.86
2019-02-25T05:37:39.278Z,70.55
2019-02-25T05:40:46.808Z,71.19
2019-02-25T05:43:13.080Z,71.87
2019-02-25T05:45:39.312Z,71.37
2019-02-25T05:48:05.564Z,72.03
2019-02-25T05:50:31.801Z,71.73
2019-02-25T05:52:58.050Z,72.43
2019-02-25T05:55:24.286Z,72.01
2019-02-25T05:57:50.529Z,70.52
2019-02-25T06:03:30.916Z,69.76
2019-02-25T06:05:57.154Z,69.73
2019-02-25T06:08:23.391Z,67.65
2019-02-25T06:10:49.633Z,69.53
2019-02-25T06:13:15.879Z,69.85
2019-02-25T06:15:42.112Z,70.83
2019-02-25T06:18:08.371Z,69.57
2019-02-25T06:20:34.606Z,70.57
2019-02-25T06:23:00.853Z,70.08
2019-02-25T06:25:27.084Z,70.17
2019-02-25T06:27:53.316Z,70.44
2019-02-25T06:31:00.869Z,68.92
2019-02-25T06:33:27.107Z,69.34
2019-02-25T06:35:53.351Z,69.10
2019-02-25T06:38:19.615Z,70.50
2019-02-25T06:40:45.844Z,70.19
2019-02-25T06:43:12.087Z,70.91
2019-02-25T06:45:38.339Z,71.44
2019-02-25T06:48:04.569Z,70.11
2019-02-25T06:50:30.816Z,69.46
2019-02-25T06:52:57.039Z,68.89
2019-02-25T06:55:23.292Z,69.23
2019-02-25T06:57:49.523Z,69.11
2019-02-25T07:00:57.067Z,67.93
2019-02-25T07:03:23.307Z,69.53
2019-02-25T07:09:05.920Z,69.65
2019-02-25T07:11:52.717Z,69.48
2019-02-25T07:20:04.098Z,66.09
2019-02-25T07:22:50.093Z,67.16
2019-02-25T07:25:36.090Z,68.25
2019-02-25T07:28:22.078Z,67.58
2019-02-25T07:36:15.828Z,68.08
2019-02-25T07:39:01.837Z,68.83
2019-02-25T07:41:47.830Z,67.98
2019-02-25T07:44:33.836Z,67.45
2019-02-25T07:47:19.816Z,67.89
2019-02-25T07:50:05.814Z,67.73
2019-02-25T07:52:51.791Z,68.18
2019-02-25T07:55:37.794Z,68.39
2019-02-25T08:01:11.375Z,68.06
2019-02-25T08:03:57.355Z,67.24
2019-02-25T08:06:43.360Z,67.96
2019-02-25T08:09:29.381Z,68.16
2019-02-25T08:15:02.968Z,67.89
2019-02-25T08:17:48.970Z,68.09
2019-02-25T08:20:34.972Z,65.39
2019-02-25T08:26:08.567Z,67.57
2019-02-25T08:28:54.551Z,65.80
2019-02-25T08:31:40.571Z,67.75
2019-02-25T08:34:26.558Z,66.20
2019-02-25T08:43:14.220Z,66.88
2019-02-25T08:50:52.593Z,64.59
2019-02-25T08:53:18.822Z,66.70
2019-02-25T08:55:45.055Z,66.62
2019-02-25T08:58:11.295Z,66.49
2019-02-25T09:00:37.523Z,65.76
2019-02-25T09:03:03.760Z,63.29
2019-02-25T09:05:29.983Z,64.22
2019-02-25T09:07:56.221Z,63.91
2019-02-25T09:10:22.436Z,63.66
2019-02-25T09:12:48.967Z,65.82
2019-02-25T09:15:16.789Z,64.00
2019-02-25T09:20:16.333Z,64.72
2019-02-25T09:22:42.584Z,63.50
2019-02-25T09:25:50.098Z,64.49
2019-02-25T09:28:16.336Z,64.69
2019-02-25T09:30:42.563Z,63.46
2019-02-25T09:33:08.804Z,62.57
2019-02-25T09:35:35.028Z,63.16
2019-02-25T09:38:01.266Z,64.17
2019-02-25T09:40:27.503Z,63.59
2019-02-25T09:42:53.747Z,64.12
2019-02-25T09:45:20.088Z,62.93
2019-02-25T09:47:46.326Z,62.70
2019-02-25T09:50:53.881Z,61.95
2019-02-25T09:53:20.122Z,64.33
2019-02-25T09:55:46.345Z,64.14
2019-02-25T09:58:12.580Z,64.02
2019-02-25T10:00:38.808Z,63.52
2019-02-25T10:03:05.052Z,61.84
2019-02-25T10:05:31.294Z,62.18
2019-02-25T10:07:57.529Z,63.11
2019-02-25T10:10:23.805Z,62.03
2019-02-25T10:12:50.026Z,62.11
2019-02-25T10:15:57.582Z,63.68
2019-02-25T10:18:23.835Z,61.16
2019-02-25T10:20:50.085Z,63.45
2019-02-25T10:23:16.320Z,61.95
2019-02-25T10:25:42.571Z,62.19
2019-02-25T10:28:08.795Z,60.33
2019-02-25T10:30:35.046Z,56.93
2019-02-25T10:33:01.277Z,59.97
2019-02-25T10:36:08.843Z,57.34
2019-02-25T10:38:35.095Z,56.36
2019-02-25T10:41:01.337Z,58.25
2019-02-25T10:43:29.337Z,59.73
2019-02-25T10:45:55.717Z,60.66
2019-02-25T10:48:23.529Z,60.02
2019-02-25T10:50:55.901Z,60.50
2019-02-25T10:53:19.902Z,61.13
2019-02-25T10:56:27.686Z,59.60
2019-02-25T10:58:53.923Z,61.25
2019-02-25T11:01:22.338Z,61.83
2019-02-25T11:03:49.878Z,61.30
2019-02-25T11:06:16.479Z,59.78
2019-02-25T11:14:05.135Z,61.64
2019-02-25T11:16:32.385Z,61.40
2019-02-25T11:19:00.707Z,59.08
2019-02-25T11:24:01.680Z,59.99
2019-02-25T11:26:28.883Z,60.88
2019-02-25T11:28:56.094Z,61.11
2019-02-25T11:31:24.712Z,56.25
2019-02-25T11:33:50.473Z,59.74
2019-02-25T11:36:17.740Z,60.28
2019-02-25T11:41:41.570Z,62.37
2019-02-25T11:44:07.821Z,61.50
2019-02-25T11:46:34.047Z,58.99
2019-02-25T11:49:00.290Z,61.11
2019-02-25T11:51:27.315Z,60.95
2019-02-25T11:53:54.819Z,60.71
2019-02-25T11:56:21.041Z,59.79
2019-02-25T11:58:47.276Z,61.52
2019-02-25T12:01:13.508Z,59.41
2019-02-25T12:03:39.752Z,61.07
2019-02-25T12:06:05.980Z,61.33
2019-02-25T12:08:32.237Z,62.04
2019-02-25T12:10:58.443Z,60.37
2019-02-25T12:13:24.688Z,58.79
2019-02-25T12:15:51.019Z,60.54
2019-02-25T12:18:17.272Z,59.34
2019-02-25T12:20:43.500Z,60.21
2019-02-25T12:23:09.747Z,59.07
2019-02-25T12:25:35.992Z,60.16
2019-02-25T12:28:02.236Z,60.75
2019-02-25T12:33:42.511Z,57.86
2019-02-25T12:36:08.757Z,61.15
2019-02-25T12:38:35.012Z,60.20
2019-02-25T12:41:01.235Z,61.08
2019-02-25T12:43:27.479Z,61.20
2019-02-25T12:45:53.709Z,59.68
2019-02-25T12:48:19.953Z,62.18
2019-02-25T12:50:46.180Z,63.11
2019-02-25T12:53:12.416Z,63.09
2019-02-25T12:55:38.662Z,62.88
2019-02-25T12:58:04.884Z,61.83
2019-02-25T13:00:31.135Z,63.14
2019-02-25T13:02:57.364Z,63.66
2019-02-25T13:06:04.915Z,64.00
2019-02-25T13:08:31.148Z,63.97
2019-02-25T13:10:57.407Z,63.36
2019-02-25T13:13:23.636Z,64.84
2019-02-25T13:15:49.889Z,65.12
2019-02-25T13:18:16.134Z,63.33
2019-02-25T13:20:42.388Z,65.22
2019-02-25T13:23:08.612Z,65.27
2019-02-25T13:25:34.849Z,65.40
2019-02-25T13:28:02.126Z,66.01
2019-02-25T13:30:29.234Z,65.39
2019-02-25T13:32:55.470Z,66.02
2019-02-25T13:35:21.718Z,66.41
2019-02-25T13:37:47.954Z,65.76
2019-02-25T13:40:55.504Z,66.83
2019-02-25T13:43:21.746Z,65.46
2019-02-25T13:45:47.994Z,66.11
2019-02-25T13:48:14.247Z,63.37
2019-02-25T13:50:40.487Z,66.14
2019-02-25T13:53:06.719Z,64.92
2019-02-25T13:55:33.061Z,62.48
2019-02-25T13:58:01.194Z,65.06
2019-02-25T14:01:08.738Z,64.22
2019-02-25T14:03:34.990Z,65.29
2019-02-25T14:06:01.242Z,65.40
2019-02-25T14:08:27.675Z,65.95
2019-02-25T14:10:53.924Z,65.60
2019-02-25T14:13:20.148Z,66.70
2019-02-25T14:15:46.513Z,67.19
2019-02-25T14:18:12.755Z,67.59
2019-02-25T14:20:39.000Z,67.40
2019-02-25T14:23:05.223Z,67.55
2019-02-25T14:26:12.804Z,67.31
2019-02-25T14:28:39.054Z,66.68
2019-02-25T14:31:48.937Z,66.12
2019-02-25T14:34:27.870Z,67.55
2019-02-25T14:36:54.966Z,67.26
2019-02-25T14:39:27.861Z,68.96
2019-02-25T14:41:54.448Z,69.29
2019-02-25T14:44:18.644Z,69.38
2019-02-25T14:46:44.892Z,69.26
2019-02-25T14:49:11.128Z,70.09
2019-02-25T14:51:37.381Z,70.25
2019-02-25T14:54:03.613Z,70.02
2019-02-25T14:56:31.773Z,70.10
2019-02-25T14:58:58.012Z,70.57
2019-02-25T15:01:25.660Z,71.87
2019-02-25T15:03:52.404Z,71.48
2019-02-25T15:06:18.655Z,71.39
2019-02-25T15:08:44.894Z,72.76
2019-02-25T15:11:12.670Z,72.27
2019-02-25T15:13:39.281Z,72.28
2019-02-25T15:16:05.508Z,73.05
2019-02-25T15:18:31.808Z,74.56
2019-02-25T15:20:58.463Z,75.26
2019-02-25T15:23:27.994Z,74.88
2019-02-25T15:25:54.319Z,74.69
2019-02-25T15:28:22.246Z,76.29
2019-02-25T15:30:48.709Z,77.75
2019-02-25T15:33:14.945Z,77.13
2019-02-25T15:35:41.688Z,79.12
2019-02-25T15:38:09.331Z,79.26
2019-02-25T15:40:35.580Z,79.08
2019-02-25T15:43:43.108Z,80.38
2019-02-25T15:46:10.457Z,80.15
2019-02-25T15:48:39.381Z,80.43
2019-02-25T15:51:05.719Z,80.48
2019-02-25T15:53:31.971Z,81.26
2019-02-25T15:56:01.024Z,83.16
2019-02-25T15:58:26.534Z,82.22
2019-02-25T16:00:52.772Z,83.14
2019-02-25T16:06:28.774Z,82.77
2019-02-25T16:08:56.411Z,83.05
2019-02-25T16:11:25.608Z,83.85
2019-02-25T16:13:53.247Z,84.73
2019-02-25T16:16:20.062Z,85.65
2019-02-25T16:21:48.051Z,86.35
2019-02-25T16:24:16.367Z,86.50
2019-02-25T16:26:42.799Z,86.34
2019-02-25T16:29:11.659Z,86.00
2019-02-25T16:31:38.710Z,86.47
2019-02-25T16:34:04.936Z,86.29
2019-02-25T16:36:32.838Z,86.95
2019-02-25T16:39:00.425Z,87.63
2019-02-25T16:41:31.759Z,89.57
2019-02-25T16:43:57.329Z,89.32
2019-02-25T16:46:24.041Z,88.35
2019-02-25T16:48:52.953Z,89.45
2019-02-25T16:51:20.051Z,90.16
2019-02-25T16:53:49.814Z,89.55
2019-02-25T16:56:14.439Z,90.78
2019-02-25T16:58:40.699Z,90.70
2019-02-25T17:01:08.041Z,90.05
2019-02-25T17:03:37.008Z,90.27
2019-02-25T17:06:05.055Z,91.32
2019-02-25T17:08:32.400Z,91.61
2019-02-25T17:11:00.013Z,91.37
2019-02-25T17:13:29.308Z,90.79
2019-02-25T17:15:55.815Z,91.40
2019-02-25T17:18:22.069Z,91.39
2019-02-25T17:20:50.365Z,91.59
2019-02-25T17:23:16.459Z,91.90
2019-02-25T17:25:43.542Z,91.39
2019-02-25T17:28:14.675Z,91.94
2019-02-25T17:30:41.178Z,92.29
2019-02-25T17:35:43.524Z,91.41
2019-02-25T17:38:09.977Z,91.88
2019-02-25T17:40:36.187Z,92.16
2019-02-25T17:43:02.431Z,92.39
2019-02-25T17:48:42.722Z,92.96
2019-02-25T17:51:08.947Z,93.69
2019-02-25T17:53:35.185Z,93.51
2019-02-25T17:56:01.421Z,93.34
2019-02-25T17:58:27.655Z,93.30
2019-02-25T18:00:55.916Z,92.77
2019-02-25T18:03:22.559Z,94.22
2019-02-25T18:05:50.263Z,93.84
2019-02-25T18:08:16.499Z,94.64
2019-02-25T18:10:43.682Z,93.98
2019-02-25T18:13:11.041Z,94.13
2019-02-25T18:15:39.137Z,95.65
2019-02-25T18:18:07.362Z,94.68
2019-02-25T18:20:33.540Z,95.03
2019-02-25T18:23:01.671Z,94.34
2019-02-25T18:25:27.920Z,94.25
2019-02-25T18:27:54.259Z,93.75
2019-02-25T18:31:02.502Z,93.75
2019-02-25T18:33:30.145Z,94.34
2019-02-25T18:36:00.170Z,95.06
2019-02-25T18:41:02.426Z,94.93
2019-02-25T18:43:30.363Z,95.15
2019-02-25T18:45:58.433Z,94.06
2019-02-25T18:48:27.344Z,94.10
2019-02-25T18:51:35.909Z,94.04
2019-02-25T18:57:16.493Z,94.47
2019-02-25T18:59:42.956Z,94.42
2019-02-25T19:02:10.180Z,94.34
2019-02-25T19:04:39.044Z,93.76
2019-02-25T19:07:05.847Z,93.27
2019-02-25T19:09:34.840Z,93.37
2019-02-25T19:12:01.817Z,93.43
2019-02-25T19:14:28.777Z,93.11
2019-02-25T19:19:51.627Z,93.02
2019-02-25T19:24:52.945Z,93.07
2019-02-25T19:27:19.189Z,93.42
2019-02-25T19:29:47.660Z,93.44
2019-02-25T19:32:14.836Z,93.67
2019-02-25T19:34:41.735Z,94.39
2019-02-25T19:37:09.666Z,94.18
2019-02-25T19:39:39.098Z,94.58
2019-02-25T19:42:04.284Z,94.65
2019-02-25T19:44:32.111Z,94.84
2019-02-25T19:49:52.425Z,94.39
2019-02-25T19:52:18.763Z,94.41
2019-02-25T19:54:45.824Z,94.30
2019-02-25T19:57:14.081Z,94.22
2019-02-25T20:02:16.162Z,94.63
2019-02-25T20:04:43.041Z,94.53
2019-02-25T20:07:10.553Z,94.64
2019-02-25T20:12:16.269Z,94.62
2019-02-25T20:14:42.650Z,95.56
2019-02-25T20:17:09.021Z,95.14
2019-02-25T20:19:35.297Z,95.25
2019-02-25T20:22:01.524Z,95.25
2019-02-25T20:24:27.771Z,95.07
2019-02-25T20:26:57.853Z,94.71
2019-02-25T20:29:22.192Z,94.42
2019-02-25T20:31:50.170Z,94.47
2019-02-25T20:34:18.854Z,94.53
2019-02-25T20:36:47.968Z,94.41
2019-02-25T20:39:12.928Z,94.65
2019-02-25T20:41:39.171Z,94.54
2019-02-25T20:44:05.413Z,94.19
2019-02-25T20:46:32.740Z,94.10
2019-02-25T20:49:00.047Z,94.38
2019-02-25T20:51:29.837Z,94.33
2019-02-25T20:53:57.188Z,94.19
2019-02-25T20:56:26.135Z,94.56
2019-02-25T20:58:52.443Z,94.58
2019-02-25T21:01:20.853Z,94.37
2019-02-25T21:03:48.580Z,94.11
2019-02-25T21:06:16.743Z,93.85
2019-02-25T21:08:44.593Z,93.73
2019-02-25T21:11:13.512Z,94.01
2019-02-25T21:13:40.265Z,94.11
2019-02-25T21:16:10.393Z,94.27
2019-02-25T21:18:35.705Z,94.63
2019-02-25T21:21:02.055Z,95.53
2019-02-25T21:23:28.290Z,95.67
2019-02-25T21:25:57.482Z,95.78
2019-02-25T21:28:25.118Z,96.97
2019-02-25T21:30:52.764Z,96.45
2019-02-25T21:33:19.888Z,96.13
2019-02-25T21:35:47.107Z,95.96
2019-02-25T21:38:13.360Z,96.00
2019-02-25T21:40:39.595Z,95.94
2019-02-25T21:43:05.836Z,95.66
2019-02-25T21:45:32.497Z,95.71
2019-02-25T21:48:02.071Z,95.58
2019-02-25T21:50:30.788Z,95.51
2019-02-25T21:52:56.492Z,95.46
2019-02-25T21:55:23.770Z,95.16
2019-02-25T21:57:52.534Z,95.13
2019-02-25T22:00:40.883Z,95.03
2019-02-25T22:03:10.272Z,94.95
2019-02-25T22:05:35.244Z,95.40
2019-02-25T22:08:02.316Z,95.47
2019-02-25T22:10:29.712Z,95.72
2019-02-25T22:12:56.008Z,96.32
2019-02-25T22:15:22.643Z,96.54
2019-02-25T22:17:53.007Z,96.78
2019-02-25T22:20:21.347Z,97.23
2019-02-25T22:28:15.973Z,98.08
2019-02-25T22:30:42.917Z,98.29
2019-02-25T22:33:25.111Z,99.10
2019-02-25T22:35:40.560Z,99.51
2019-02-25T22:38:06.839Z,99.67
2019-02-25T22:40:34.942Z,99.78
2019-02-25T22:43:01.331Z,99.98
2019-02-25T22:45:27.619Z,100.00
2019-02-25T22:48:00.580Z,100.00
2019-02-25T22:50:28.759Z,100.00
2019-02-25T22:52:58.153Z,99.90
2019-02-25T22:55:23.252Z,99.65
2019-02-25T22:57:53.457Z,99.43
2019-02-25T23:00:58.938Z,99.44
2019-02-25T23:03:27.500Z,99.49
2019-02-25T23:05:55.168Z,99.75
2019-02-25T23:08:23.442Z,99.51
2019-02-25T23:10:51.521Z,99.24
2019-02-25T23:13:20.061Z,98.90
2019-02-25T23:15:47.341Z,99.13
2019-02-25T23:18:16.599Z,99.28
2019-02-25T23:20:42.645Z,99.34
2019-02-25T23:23:08.925Z,99.45
2019-02-25T23:25:35.207Z,99.59
2019-02-25T23:28:02.269Z,99.56
2019-02-25T23:30:29.696Z,99.55
2019-02-25T23:32:55.988Z,99.51
2019-02-25T23:35:23.012Z,98.51
2019-02-25T23:37:51.416Z,97.88
2019-02-25T23:40:18.661Z,98.03
2019-02-25T23:42:46.667Z,97.75
2019-02-25T23:47:41.201Z,97.16
2019-02-25T23:53:21.600Z,96.99
2019-02-25T23:55:50.058Z,97.37
2019-02-25T23:58:17.204Z,97.35
